createdAt,value
2023-02-07T00:01:33.202Z,90.29
2023-02-07T00:04:00.380Z,90.00
2023-02-07T00:06:33.801Z,90.33
2023-02-07T00:09:03.120Z,89.46
2023-02-07T00:11:30.588Z,89.74
2023-02-07T00:13:58.888Z,89.95
2023-02-07T00:16:26.441Z,88.69
2023-02-07T00:18:55.036Z,89.67
2023-02-07T00:21:24.218Z,89.63
2023-02-07T00:23:53.149Z,90.67
2023-02-07T00:26:24.685Z,90.74
2023-02-07T00:28:53.971Z,90.13
2023-02-07T00:31:27.218Z,89.63
2023-02-07T00:33:56.938Z,90.47
2023-02-07T00:36:25.551Z,90.84
2023-02-07T00:38:56.633Z,91.89
2023-02-07T00:41:24.039Z,90.57
2023-02-07T00:43:51.355Z,89.45
2023-02-07T00:46:18.439Z,89.48
2023-02-07T00:48:45.677Z,89.81
2023-02-07T00:51:16.207Z,90.44
2023-02-07T00:53:45.523Z,91.38
2023-02-07T00:56:12.725Z,92.22
2023-02-07T00:58:40.096Z,92.25
2023-02-07T01:01:07.204Z,92.09
2023-02-07T01:03:34.282Z,91.16
2023-02-07T01:06:01.381Z,91.10
2023-02-07T01:08:28.463Z,90.87
2023-02-07T01:10:55.533Z,90.41
2023-02-07T01:13:22.569Z,89.88
2023-02-07T01:15:50.450Z,88.82
2023-02-07T01:18:17.493Z,89.50
2023-02-07T01:20:44.761Z,89.19
2023-02-07T01:23:13.222Z,87.54
2023-02-07T01:25:43.975Z,87.65
2023-02-07T01:28:11.956Z,87.67
2023-02-07T01:30:40.911Z,88.03
2023-02-07T01:33:08.994Z,87.46
2023-02-07T01:35:37.751Z,87.77
2023-02-07T01:38:05.752Z,88.05
2023-02-07T01:40:37.779Z,89.40
2023-02-07T01:43:06.706Z,89.37
2023-02-07T01:45:37.856Z,91.21
2023-02-07T01:48:14.959Z,91.61
2023-02-07T01:50:46.782Z,92.33
2023-02-07T01:53:17.443Z,92.54
2023-02-07T01:55:47.463Z,92.73
2023-02-07T01:58:15.176Z,92.98
2023-02-07T02:00:42.760Z,94.92
2023-02-07T02:03:09.841Z,95.16
2023-02-07T02:05:39.691Z,96.94
2023-02-07T02:08:07.090Z,97.92
2023-02-07T02:11:00.384Z,97.75
2023-02-07T02:13:55.618Z,98.95
2023-02-07T02:16:42.738Z,98.37
2023-02-07T02:19:31.326Z,97.39
2023-02-07T02:22:13.753Z,98.58
2023-02-07T02:24:54.339Z,98.90
2023-02-07T02:27:47.764Z,98.80
2023-02-07T02:30:36.722Z,98.33
2023-02-07T02:33:25.286Z,98.99
2023-02-07T02:36:07.660Z,100.00
2023-02-07T02:38:37.602Z,100.00
2023-02-07T02:41:58.060Z,100.00
2023-02-07T02:44:38.509Z,100.00
2023-02-07T02:47:05.934Z,100.00
2023-02-07T02:49:34.419Z,100.00
2023-02-07T02:52:01.694Z,100.00
2023-02-07T02:54:38.223Z,100.00
2023-02-07T02:57:16.065Z,100.00
2023-02-07T03:00:08.985Z,100.00
2023-02-07T03:03:00.629Z,100.00
2023-02-07T03:05:36.904Z,100.00
2023-02-07T03:08:18.066Z,100.00
2023-02-07T03:11:07.149Z,100.00
2023-02-07T03:13:58.807Z,100.00
2023-02-07T03:16:40.932Z,100.00
2023-02-07T03:19:15.651Z,100.00
2023-02-07T03:21:46.941Z,100.00
2023-02-07T03:24:18.045Z,100.00
2023-02-07T03:26:47.006Z,100.00
2023-02-07T03:29:17.769Z,100.00
2023-02-07T03:31:48.120Z,100.00
2023-02-07T03:34:21.021Z,100.00
2023-02-07T03:37:04.564Z,100.00
2023-02-07T03:39:32.823Z,100.00
2023-02-07T03:42:06.217Z,100.00
2023-02-07T03:44:35.864Z,100.00
2023-02-07T03:47:04.287Z,100.00
2023-02-07T03:49:31.308Z,100.00
2023-02-07T03:51:58.316Z,100.00
2023-02-07T03:54:25.375Z,100.00
2023-02-07T03:56:52.365Z,100.00
2023-02-07T03:59:19.365Z,100.00
2023-02-07T04:01:46.443Z,100.00
2023-02-07T04:04:13.510Z,100.00
2023-02-07T04:06:40.515Z,100.00
2023-02-07T04:09:08.387Z,100.00
2023-02-07T04:11:36.148Z,100.00
2023-02-07T04:14:03.202Z,100.00
2023-02-07T04:16:30.395Z,100.00
2023-02-07T04:18:57.464Z,100.00
2023-02-07T04:21:25.145Z,100.00
2023-02-07T04:23:52.141Z,100.00
2023-02-07T04:26:19.469Z,100.00
2023-02-07T04:28:46.463Z,100.00
2023-02-07T04:31:13.584Z,100.00
2023-02-07T04:33:40.803Z,100.00
2023-02-07T04:36:08.256Z,100.00
2023-02-07T04:38:35.287Z,100.00
2023-02-07T04:41:05.398Z,100.00
2023-02-07T04:43:34.442Z,100.00
2023-02-07T04:46:02.809Z,100.00
2023-02-07T04:48:30.632Z,100.00
2023-02-07T04:50:57.993Z,100.00
2023-02-07T04:53:25.340Z,100.00
2023-02-07T04:55:54.181Z,100.00
2023-02-07T04:58:22.514Z,100.00
2023-02-07T05:00:49.576Z,100.00
2023-02-07T05:03:16.738Z,100.00
2023-02-07T05:05:45.505Z,100.00
2023-02-07T05:08:13.500Z,100.00
2023-02-07T05:10:40.955Z,100.00
2023-02-07T05:13:07.990Z,100.00
2023-02-07T05:15:35.179Z,100.00
2023-02-07T05:18:02.378Z,100.00
2023-02-07T05:20:29.413Z,100.00
2023-02-07T05:22:56.507Z,100.00
2023-02-07T05:25:23.623Z,100.00
2023-02-07T05:27:50.993Z,100.00
2023-02-07T05:30:18.570Z,100.00
2023-02-07T05:33:03.837Z,100.00
2023-02-07T05:35:34.660Z,100.00
2023-02-07T05:38:05.976Z,100.00
2023-02-07T05:40:37.044Z,100.00
2023-02-07T05:43:04.676Z,100.00
2023-02-07T05:45:32.225Z,100.00
2023-02-07T05:47:59.400Z,100.00
2023-02-07T05:50:26.531Z,100.00
2023-02-07T05:53:06.500Z,100.00
2023-02-07T05:55:33.837Z,100.00
2023-02-07T05:58:00.945Z,100.00
2023-02-07T06:00:28.119Z,100.00
2023-02-07T06:02:55.279Z,100.00
2023-02-07T06:05:23.652Z,100.00
2023-02-07T06:07:51.848Z,100.00
2023-02-07T06:10:19.178Z,100.00
2023-02-07T06:12:46.498Z,100.00
2023-02-07T06:15:13.548Z,100.00
2023-02-07T06:17:40.553Z,100.00
2023-02-07T06:20:08.377Z,100.00
2023-02-07T06:22:35.493Z,100.00
2023-02-07T06:25:02.813Z,100.00
2023-02-07T06:27:30.125Z,100.00
2023-02-07T06:29:57.119Z,100.00
2023-02-07T06:32:24.181Z,100.00
2023-02-07T06:34:51.202Z,100.00
2023-02-07T06:37:18.280Z,100.00
2023-02-07T06:39:45.377Z,100.00
2023-02-07T06:42:12.532Z,100.00
2023-02-07T06:44:39.523Z,100.00
2023-02-07T06:47:07.168Z,100.00
2023-02-07T06:49:34.134Z,100.00
2023-02-07T06:52:01.486Z,100.00
2023-02-07T06:54:28.715Z,100.00
2023-02-07T06:56:55.703Z,100.00
2023-02-07T06:59:22.717Z,100.00
2023-02-07T07:01:49.893Z,100.00
2023-02-07T07:04:18.314Z,100.00
2023-02-07T07:06:46.773Z,100.00
2023-02-07T07:09:13.804Z,100.00
2023-02-07T07:11:43.016Z,100.00
2023-02-07T07:14:11.490Z,100.00
2023-02-07T07:16:40.928Z,100.00
2023-02-07T07:19:08.217Z,100.00
2023-02-07T07:21:35.692Z,100.00
2023-02-07T07:24:03.216Z,100.00
2023-02-07T07:26:43.051Z,100.00
2023-02-07T07:29:15.239Z,100.00
2023-02-07T07:31:42.379Z,100.00
2023-02-07T07:34:09.383Z,100.00
2023-02-07T07:36:36.397Z,100.00
2023-02-07T07:39:03.870Z,100.00
2023-02-07T07:41:30.912Z,100.00
2023-02-07T07:43:57.884Z,100.00
2023-02-07T07:46:25.211Z,100.00
2023-02-07T07:48:52.911Z,100.00
2023-02-07T07:51:19.987Z,100.00
2023-02-07T07:53:47.115Z,100.00
2023-02-07T07:56:14.233Z,100.00
2023-02-07T07:58:41.307Z,100.00
2023-02-07T08:01:08.390Z,100.00
2023-02-07T08:03:35.470Z,100.00
2023-02-07T08:06:02.535Z,100.00
2023-02-07T08:08:29.615Z,100.00
2023-02-07T08:11:01.933Z,100.00
2023-02-07T08:13:32.270Z,100.00
2023-02-07T08:16:00.030Z,100.00
2023-02-07T08:18:27.143Z,100.00
2023-02-07T08:20:54.153Z,100.00
2023-02-07T08:23:22.366Z,100.00
2023-02-07T08:25:50.115Z,100.00
2023-02-07T08:28:18.147Z,98.99
2023-02-07T08:30:47.419Z,98.93
2023-02-07T08:33:16.274Z,98.23
2023-02-07T08:35:44.023Z,97.47
2023-02-07T08:38:11.803Z,96.72
2023-02-07T08:40:39.641Z,97.27
2023-02-07T08:43:12.141Z,96.04
2023-02-07T08:45:46.780Z,94.93
2023-02-07T08:48:14.372Z,94.12
2023-02-07T08:50:41.711Z,93.83
2023-02-07T08:53:09.025Z,93.19
2023-02-07T08:55:36.489Z,92.40
2023-02-07T08:58:03.486Z,91.41
2023-02-07T09:00:30.515Z,90.75
2023-02-07T09:02:57.612Z,89.91
2023-02-07T09:05:24.967Z,89.19
2023-02-07T09:07:51.937Z,88.57
2023-02-07T09:10:19.086Z,87.00
2023-02-07T09:12:46.072Z,85.67
2023-02-07T09:15:13.138Z,84.42
2023-02-07T09:17:40.525Z,84.45
2023-02-07T09:20:08.015Z,83.50
2023-02-07T09:22:54.995Z,83.83
2023-02-07T09:25:22.127Z,83.75
2023-02-07T09:27:50.401Z,83.52
2023-02-07T09:30:17.761Z,82.66
2023-02-07T09:32:44.781Z,83.19
2023-02-07T09:35:11.828Z,83.58
2023-02-07T09:37:48.887Z,81.96
2023-02-07T09:40:19.372Z,82.13
2023-02-07T09:42:57.483Z,81.59
2023-02-07T09:45:29.274Z,79.49
2023-02-07T09:48:04.532Z,78.82
2023-02-07T09:50:37.588Z,77.60
2023-02-07T09:53:16.335Z,75.93
2023-02-07T09:55:55.158Z,75.06
2023-02-07T09:58:43.759Z,75.87
2023-02-07T10:01:27.345Z,76.48
2023-02-07T10:04:26.576Z,75.49
2023-02-07T10:06:57.628Z,75.80
2023-02-07T10:09:32.524Z,74.47
2023-02-07T10:12:36.816Z,75.71
2023-02-07T10:15:16.959Z,75.54
2023-02-07T10:18:01.964Z,73.64
2023-02-07T10:20:36.624Z,74.07
2023-02-07T10:23:14.609Z,74.13
2023-02-07T10:26:06.399Z,73.24
2023-02-07T10:29:05.040Z,73.55
2023-02-07T10:31:37.678Z,71.25
2023-02-07T10:34:14.392Z,70.96
2023-02-07T10:36:53.542Z,71.41
2023-02-07T10:39:45.541Z,71.45
2023-02-07T10:42:15.770Z,71.06
2023-02-07T10:44:43.623Z,70.52
2023-02-07T10:47:16.628Z,70.42
2023-02-07T10:49:47.695Z,69.83
2023-02-07T10:52:27.680Z,69.53
2023-02-07T10:54:58.525Z,68.32
2023-02-07T10:57:27.737Z,66.87
2023-02-07T11:00:04.984Z,65.46
2023-02-07T11:02:32.128Z,62.57
2023-02-07T11:05:08.611Z,60.27
2023-02-07T11:07:47.164Z,58.84
2023-02-07T11:10:25.118Z,58.51
2023-02-07T11:12:57.078Z,57.21
2023-02-07T11:15:32.568Z,58.28
2023-02-07T11:17:59.596Z,58.12
2023-02-07T11:20:33.416Z,58.19
2023-02-07T11:23:03.809Z,56.93
2023-02-07T11:25:34.807Z,56.92
2023-02-07T11:28:02.195Z,57.50
2023-02-07T11:30:33.769Z,56.99
2023-02-07T11:33:04.498Z,55.52
2023-02-07T11:35:31.728Z,56.52
2023-02-07T11:38:13.273Z,56.51
2023-02-07T11:40:43.416Z,55.92
2023-02-07T11:43:19.260Z,56.39
2023-02-07T11:45:50.124Z,56.26
2023-02-07T11:48:25.634Z,55.06
2023-02-07T11:50:55.481Z,52.95
2023-02-07T11:53:28.110Z,54.60
2023-02-07T11:55:56.451Z,54.05
2023-02-07T11:58:35.071Z,54.10
2023-02-07T12:01:05.292Z,54.67
2023-02-07T12:03:41.116Z,55.11
2023-02-07T12:06:15.570Z,53.61
2023-02-07T12:08:44.085Z,53.96
2023-02-07T12:11:28.397Z,53.26
2023-02-07T12:14:13.641Z,53.44
2023-02-07T12:16:52.503Z,50.75
2023-02-07T12:19:24.547Z,50.89
2023-02-07T12:22:17.943Z,51.94
2023-02-07T12:24:51.756Z,51.09
2023-02-07T12:27:19.966Z,51.45
2023-02-07T12:30:01.922Z,49.89
2023-02-07T12:32:33.398Z,51.42
2023-02-07T12:35:15.867Z,52.25
2023-02-07T12:37:50.962Z,51.53
2023-02-07T12:40:36.932Z,51.42
2023-02-07T12:43:11.026Z,51.31
2023-02-07T12:46:00.280Z,52.26
2023-02-07T12:48:33.429Z,51.48
2023-02-07T12:51:29.637Z,51.16
2023-02-07T12:54:35.718Z,50.36
2023-02-07T12:57:02.632Z,50.78
2023-02-07T12:59:45.965Z,49.88
2023-02-07T13:02:40.401Z,50.96
2023-02-07T13:05:19.995Z,51.02
2023-02-07T13:08:19.972Z,49.90
2023-02-07T13:11:01.968Z,49.13
2023-02-07T13:14:35.788Z,49.53
2023-02-07T13:17:21.037Z,48.81
2023-02-07T13:20:00.159Z,48.11
2023-02-07T13:22:55.023Z,48.04
2023-02-07T13:25:27.240Z,47.56
2023-02-07T13:27:57.654Z,47.14
2023-02-07T13:30:30.238Z,47.39
2023-02-07T13:33:05.260Z,47.07
2023-02-07T13:35:38.479Z,46.18
2023-02-07T13:38:46.937Z,44.95
2023-02-07T13:41:33.762Z,46.04
2023-02-07T13:44:20.062Z,46.41
2023-02-07T13:47:01.350Z,46.16
2023-02-07T13:49:34.562Z,45.47
2023-02-07T13:52:10.903Z,46.49
2023-02-07T13:55:40.492Z,45.28
2023-02-07T13:58:51.430Z,46.39
2023-02-07T14:01:21.813Z,47.01
2023-02-07T14:04:19.617Z,47.22
2023-02-07T14:07:11.611Z,47.44
2023-02-07T14:09:44.882Z,46.99
2023-02-07T14:12:26.465Z,47.49
2023-02-07T14:15:02.677Z,46.52
2023-02-07T14:17:31.131Z,47.11
2023-02-07T14:20:00.113Z,46.25
2023-02-07T14:22:48.809Z,48.45
2023-02-07T14:25:24.576Z,48.13
2023-02-07T14:27:51.541Z,48.98
2023-02-07T14:30:23.032Z,47.87
2023-02-07T14:33:12.260Z,48.04
2023-02-07T14:36:02.556Z,48.96
2023-02-07T14:38:37.367Z,46.77
2023-02-07T14:41:14.048Z,48.49
2023-02-07T14:43:59.718Z,47.81
2023-02-07T14:46:39.476Z,47.88
2023-02-07T14:49:32.056Z,47.73
2023-02-07T14:52:05.033Z,47.43
2023-02-07T14:54:56.350Z,47.94
2023-02-07T14:57:46.954Z,47.85
2023-02-07T15:00:13.917Z,47.97
2023-02-07T15:03:04.972Z,48.89
2023-02-07T15:05:37.341Z,48.57
2023-02-07T15:08:06.153Z,49.75
2023-02-07T15:10:37.918Z,50.07
2023-02-07T15:13:17.241Z,50.43
2023-02-07T15:15:52.210Z,50.93
2023-02-07T15:18:22.113Z,50.48
2023-02-07T15:20:57.510Z,49.37
2023-02-07T15:23:30.373Z,50.21
2023-02-07T15:26:06.779Z,49.89
2023-02-07T15:28:34.133Z,50.45
2023-02-07T15:31:11.235Z,50.76
2023-02-07T15:33:47.651Z,51.29
2023-02-07T15:36:45.848Z,50.06
2023-02-07T15:39:23.121Z,51.01
2023-02-07T15:41:55.607Z,51.55
2023-02-07T15:44:27.219Z,52.14
2023-02-07T15:46:54.265Z,51.22
2023-02-07T15:49:32.368Z,52.38
2023-02-07T15:52:19.577Z,52.69
2023-02-07T15:54:51.172Z,52.75
2023-02-07T15:57:29.157Z,52.94
2023-02-07T16:00:02.679Z,52.16
2023-02-07T16:02:47.333Z,52.78
2023-02-07T16:05:37.893Z,53.95
2023-02-07T16:08:47.124Z,54.54
2023-02-07T16:11:26.113Z,55.59
2023-02-07T16:14:14.354Z,56.10
2023-02-07T16:16:51.690Z,56.61
2023-02-07T16:19:26.054Z,56.06
2023-02-07T16:22:15.255Z,57.33
2023-02-07T16:24:44.875Z,56.78
2023-02-07T16:27:17.926Z,57.68
2023-02-07T16:29:45.918Z,57.54
2023-02-07T16:32:16.860Z,57.91
2023-02-07T16:34:58.586Z,57.32
2023-02-07T16:37:28.637Z,59.34
2023-02-07T16:39:55.769Z,59.76
2023-02-07T16:42:25.903Z,60.40
2023-02-07T16:44:53.685Z,61.38
2023-02-07T16:47:23.601Z,62.95
2023-02-07T16:49:50.748Z,63.34
2023-02-07T16:52:18.069Z,64.22
2023-02-07T16:54:46.913Z,64.94
2023-02-07T16:57:14.960Z,64.73
2023-02-07T16:59:42.332Z,65.90
2023-02-07T17:02:16.269Z,66.42
2023-02-07T17:04:43.339Z,67.55
2023-02-07T17:07:11.554Z,69.67
2023-02-07T17:09:38.617Z,71.44
2023-02-07T17:12:07.223Z,72.32
2023-02-07T17:14:36.287Z,73.06
2023-02-07T17:17:03.490Z,72.80
2023-02-07T17:19:30.718Z,73.90
2023-02-07T17:21:57.858Z,75.11
2023-02-07T17:24:24.860Z,76.04
2023-02-07T17:26:54.319Z,76.73
2023-02-07T17:29:22.073Z,77.76
2023-02-07T17:31:49.529Z,79.72
2023-02-07T17:34:16.916Z,79.35
2023-02-07T17:36:48.212Z,79.09
2023-02-07T17:39:17.568Z,79.12
2023-02-07T17:41:44.821Z,78.99
2023-02-07T17:44:11.928Z,78.47
2023-02-07T17:46:38.994Z,79.00
2023-02-07T17:49:13.651Z,78.91
2023-02-07T17:51:40.788Z,79.37
2023-02-07T17:54:08.274Z,79.98
2023-02-07T17:56:35.724Z,80.69
2023-02-07T17:59:05.737Z,81.79
2023-02-07T18:01:33.466Z,81.88
2023-02-07T18:04:02.464Z,82.52
2023-02-07T18:06:30.563Z,82.41
2023-02-07T18:08:58.850Z,84.05
2023-02-07T18:11:30.424Z,83.52
2023-02-07T18:13:57.812Z,86.00
2023-02-07T18:16:26.655Z,85.42
2023-02-07T18:18:56.575Z,84.70
2023-02-07T18:21:23.920Z,86.05
2023-02-07T18:23:53.175Z,86.22
2023-02-07T18:26:21.204Z,86.16
2023-02-07T18:28:48.814Z,85.84
2023-02-07T18:31:19.550Z,85.65
2023-02-07T18:33:47.553Z,85.83
2023-02-07T18:36:14.830Z,86.98
2023-02-07T18:38:42.291Z,87.88
2023-02-07T18:41:15.665Z,88.15
2023-02-07T18:43:43.213Z,89.12
2023-02-07T18:46:12.832Z,88.76
2023-02-07T18:48:40.684Z,88.91
2023-02-07T18:51:10.563Z,89.08
2023-02-07T18:53:38.075Z,89.73
2023-02-07T18:56:07.380Z,90.03
2023-02-07T18:58:34.593Z,88.70
2023-02-07T19:01:09.744Z,89.25
2023-02-07T19:03:38.532Z,88.11
2023-02-07T19:06:07.346Z,88.68
2023-02-07T19:08:34.928Z,88.45
2023-02-07T19:11:05.081Z,89.35
2023-02-07T19:13:33.611Z,89.83
2023-02-07T19:16:03.736Z,90.14
2023-02-07T19:18:31.369Z,89.56
2023-02-07T19:21:13.395Z,89.21
2023-02-07T19:23:41.064Z,88.91
2023-02-07T19:26:08.888Z,88.18
2023-02-07T19:28:37.287Z,90.17
2023-02-07T19:31:08.032Z,91.14
2023-02-07T19:33:36.071Z,91.76
2023-02-07T19:36:08.725Z,93.04
2023-02-07T19:38:36.431Z,94.67
2023-02-07T19:41:04.295Z,94.04
2023-02-07T19:43:31.711Z,94.21
2023-02-07T19:45:59.578Z,94.64
2023-02-07T19:48:26.845Z,95.56
2023-02-07T19:51:01.735Z,95.65
2023-02-07T19:53:29.708Z,94.47
2023-02-07T19:56:05.686Z,95.03
2023-02-07T19:58:33.661Z,94.93
2023-02-07T20:01:01.973Z,96.04
2023-02-07T20:03:29.148Z,96.61
2023-02-07T20:06:00.210Z,96.89
2023-02-07T20:08:27.772Z,96.89
2023-02-07T20:10:54.823Z,97.81
2023-02-07T20:13:21.957Z,98.27
2023-02-07T20:15:48.973Z,99.04
2023-02-07T20:18:16.022Z,98.27
2023-02-07T20:20:46.604Z,98.92
2023-02-07T20:23:15.098Z,98.36
2023-02-07T20:25:42.130Z,98.04
2023-02-07T20:28:09.150Z,98.83
2023-02-07T20:30:42.362Z,99.06
2023-02-07T20:33:09.494Z,98.95
2023-02-07T20:35:37.947Z,99.95
2023-02-07T20:38:04.951Z,99.07
2023-02-07T20:40:32.755Z,99.42
2023-02-07T20:42:59.745Z,98.85
2023-02-07T20:45:28.279Z,98.75
2023-02-07T20:47:55.394Z,98.92
2023-02-07T20:50:22.714Z,98.42
2023-02-07T20:52:49.933Z,99.45
2023-02-07T20:55:17.168Z,98.90
2023-02-07T20:57:44.380Z,99.52
2023-02-07T21:00:12.004Z,99.09
2023-02-07T21:02:40.082Z,99.48
2023-02-07T21:05:07.359Z,99.59
2023-02-07T21:07:34.465Z,98.70
2023-02-07T21:10:01.745Z,97.94
2023-02-07T21:12:29.067Z,98.23
2023-02-07T21:14:57.459Z,97.62
2023-02-07T21:17:24.604Z,96.93
2023-02-07T21:19:51.709Z,96.87
2023-02-07T21:22:19.055Z,96.74
2023-02-07T21:24:47.402Z,96.86
2023-02-07T21:27:14.541Z,97.52
2023-02-07T21:29:41.639Z,99.16
2023-02-07T21:32:08.941Z,98.28
2023-02-07T21:34:36.160Z,98.60
2023-02-07T21:37:03.201Z,99.11
2023-02-07T21:39:30.328Z,99.68
2023-02-07T21:41:58.708Z,100.00
2023-02-07T21:44:25.779Z,100.00
2023-02-07T21:46:52.846Z,100.00
2023-02-07T21:49:20.830Z,100.00
2023-02-07T21:51:49.421Z,100.00
2023-02-07T21:54:16.740Z,100.00
2023-02-07T21:56:44.439Z,100.00
2023-02-07T21:59:17.091Z,100.00
2023-02-07T22:01:45.258Z,100.00
2023-02-07T22:04:14.199Z,100.00
2023-02-07T22:06:43.876Z,100.00
2023-02-07T22:09:15.696Z,100.00
2023-02-07T22:11:43.156Z,100.00
2023-02-07T22:14:13.458Z,100.00
2023-02-07T22:16:40.809Z,100.00
2023-02-07T22:19:11.211Z,100.00
2023-02-07T22:21:38.417Z,100.00
2023-02-07T22:24:06.347Z,100.00
2023-02-07T22:26:34.654Z,100.00
2023-02-07T22:29:03.012Z,100.00
2023-02-07T22:31:32.066Z,100.00
2023-02-07T22:34:07.862Z,100.00
2023-02-07T22:36:37.605Z,100.00
2023-02-07T22:39:06.763Z,100.00
2023-02-07T22:41:35.401Z,100.00
2023-02-07T22:44:03.385Z,100.00
2023-02-07T22:46:30.572Z,100.00
2023-02-07T22:48:58.034Z,100.00
2023-02-07T22:51:32.201Z,100.00
2023-02-07T22:54:03.684Z,100.00
2023-02-07T22:56:31.319Z,100.00
2023-02-07T22:58:58.310Z,100.00
2023-02-07T23:01:34.546Z,100.00
2023-02-07T23:04:03.389Z,100.00
2023-02-07T23:06:32.409Z,100.00
2023-02-07T23:09:00.240Z,100.00
2023-02-07T23:11:27.279Z,100.00
2023-02-07T23:13:55.375Z,100.00
2023-02-07T23:16:28.278Z,100.00
2023-02-07T23:18:57.140Z,100.00
2023-02-07T23:21:25.792Z,100.00
2023-02-07T23:23:53.722Z,100.00
2023-02-07T23:26:22.909Z,100.00
2023-02-07T23:28:51.373Z,100.00
2023-02-07T23:31:20.486Z,100.00
2023-02-07T23:33:48.296Z,100.00
2023-02-07T23:36:17.719Z,100.00
2023-02-07T23:38:46.817Z,100.00
2023-02-07T23:41:14.393Z,100.00
2023-02-07T23:43:42.167Z,100.00
2023-02-07T23:46:17.647Z,100.00
2023-02-07T23:48:45.516Z,100.00
2023-02-07T23:51:13.648Z,100.00
2023-02-07T23:53:42.029Z,100.00
2023-02-07T23:56:10.977Z,100.00
2023-02-07T23:58:39.141Z,100.00
